sensor_id;sensor_type;location;lat;lon;timestamp;temperature;humidity
4755;DHT22;2391;47.212;7.542;2023-08-20T00:01:02;28.60;72.90
4755;DHT22;2391;47.212;7.542;2023-08-20T00:03:29;28.60;73.00
4755;DHT22;2391;47.212;7.542;2023-08-20T00:05:55;28.60;73.10
4755;DHT22;2391;47.212;7.542;2023-08-20T00:08:21;28.60;72.90
4755;DHT22;2391;47.212;7.542;2023-08-20T00:10:47;28.50;73.10
4755;DHT22;2391;47.212;7.542;2023-08-20T00:13:13;28.60;73.30
4755;DHT22;2391;47.212;7.542;2023-08-20T00:15:39;28.50;73.30
4755;DHT22;2391;47.212;7.542;2023-08-20T00:18:06;28.50;73.50
4755;DHT22;2391;47.212;7.542;2023-08-20T00:20:32;28.50;73.80
4755;DHT22;2391;47.212;7.542;2023-08-20T00:22:59;28.40;73.60
4755;DHT22;2391;47.212;7.542;2023-08-20T00:25:25;28.40;73.50
4755;DHT22;2391;47.212;7.542;2023-08-20T00:27:51;28.40;73.60
4755;DHT22;2391;47.212;7.542;2023-08-20T00:30:17;28.40;73.60
4755;DHT22;2391;47.212;7.542;2023-08-20T00:32:42;28.40;73.50
4755;DHT22;2391;47.212;7.542;2023-08-20T00:35:08;28.40;73.30
4755;DHT22;2391;47.212;7.542;2023-08-20T00:37:34;28.40;73.40
4755;DHT22;2391;47.212;7.542;2023-08-20T00:40:02;28.30;73.40
4755;DHT22;2391;47.212;7.542;2023-08-20T00:42:29;28.30;73.40
4755;DHT22;2391;47.212;7.542;2023-08-20T00:44:56;28.30;73.60
4755;DHT22;2391;47.212;7.542;2023-08-20T00:47:21;28.30;73.40
4755;DHT22;2391;47.212;7.542;2023-08-20T00:49:48;28.30;73.40
4755;DHT22;2391;47.212;7.542;2023-08-20T00:52:17;28.20;73.40
4755;DHT22;2391;47.212;7.542;2023-08-20T00:54:47;28.20;73.50
4755;DHT22;2391;47.212;7.542;2023-08-20T00:57:14;28.10;73.60
4755;DHT22;2391;47.212;7.542;2023-08-20T00:59:41;28.10;73.80
4755;DHT22;2391;47.212;7.542;2023-08-20T01:02:08;28.10;74.00
4755;DHT22;2391;47.212;7.542;2023-08-20T01:04:34;28.10;74.00
4755;DHT22;2391;47.212;7.542;2023-08-20T01:07:04;28.00;74.10
4755;DHT22;2391;47.212;7.542;2023-08-20T01:12:19;28.00;74.40
4755;DHT22;2391;47.212;7.542;2023-08-20T01:14:45;27.90;74.30
4755;DHT22;2391;47.212;7.542;2023-08-20T01:17:11;27.90;74.30
4755;DHT22;2391;47.212;7.542;2023-08-20T01:19:37;27.90;74.60
4755;DHT22;2391;47.212;7.542;2023-08-20T01:22:40;27.80;74.50
4755;DHT22;2391;47.212;7.542;2023-08-20T01:30:34;27.70;74.90
4755;DHT22;2391;47.212;7.542;2023-08-20T01:33:01;27.70;74.90
4755;DHT22;2391;47.212;7.542;2023-08-20T01:35:28;27.70;75.20
4755;DHT22;2391;47.212;7.542;2023-08-20T01:37:54;27.60;75.10
4755;DHT22;2391;47.212;7.542;2023-08-20T01:40:19;27.60;75.20
4755;DHT22;2391;47.212;7.542;2023-08-20T01:42:45;27.60;75.50
4755;DHT22;2391;47.212;7.542;2023-08-20T01:45:11;27.60;75.40
4755;DHT22;2391;47.212;7.542;2023-08-20T01:47:37;27.60;75.20
4755;DHT22;2391;47.212;7.542;2023-08-20T01:50:03;27.60;75.30
4755;DHT22;2391;47.212;7.542;2023-08-20T01:52:29;27.50;75.30
4755;DHT22;2391;47.212;7.542;2023-08-20T01:54:55;27.50;75.30
4755;DHT22;2391;47.212;7.542;2023-08-20T01:57:21;27.50;75.30
4755;DHT22;2391;47.212;7.542;2023-08-20T01:59:48;27.50;75.40
4755;DHT22;2391;47.212;7.542;2023-08-20T02:02:14;27.50;75.70
4755;DHT22;2391;47.212;7.542;2023-08-20T02:04:40;27.40;75.70
4755;DHT22;2391;47.212;7.542;2023-08-20T02:07:05;27.40;75.80
4755;DHT22;2391;47.212;7.542;2023-08-20T02:09:31;27.30;75.80
4755;DHT22;2391;47.212;7.542;2023-08-20T02:11:57;27.30;75.70
4755;DHT22;2391;47.212;7.542;2023-08-20T02:14:23;27.30;75.90
4755;DHT22;2391;47.212;7.542;2023-08-20T02:16:48;27.30;76.10
4755;DHT22;2391;47.212;7.542;2023-08-20T02:19:14;27.20;76.10
4755;DHT22;2391;47.212;7.542;2023-08-20T02:21:40;27.20;76.10
4755;DHT22;2391;47.212;7.542;2023-08-20T02:24:06;27.20;76.10
4755;DHT22;2391;47.212;7.542;2023-08-20T02:26:32;27.20;76.10
4755;DHT22;2391;47.212;7.542;2023-08-20T02:28:58;27.20;76.20
4755;DHT22;2391;47.212;7.542;2023-08-20T02:31:24;27.20;76.30
4755;DHT22;2391;47.212;7.542;2023-08-20T02:33:49;27.10;76.40
4755;DHT22;2391;47.212;7.542;2023-08-20T02:36:15;27.10;76.50
4755;DHT22;2391;47.212;7.542;2023-08-20T02:38:41;27.10;76.60
4755;DHT22;2391;47.212;7.542;2023-08-20T02:41:06;27.00;76.60
4755;DHT22;2391;47.212;7.542;2023-08-20T02:43:32;27.00;76.50
4755;DHT22;2391;47.212;7.542;2023-08-20T02:45:58;26.90;76.40
4755;DHT22;2391;47.212;7.542;2023-08-20T02:48:24;26.90;76.50
4755;DHT22;2391;47.212;7.542;2023-08-20T02:50:54;26.90;76.70
4755;DHT22;2391;47.212;7.542;2023-08-20T02:53:20;26.90;76.80
4755;DHT22;2391;47.212;7.542;2023-08-20T02:55:46;26.90;76.80
4755;DHT22;2391;47.212;7.542;2023-08-20T02:58:12;26.90;76.90
4755;DHT22;2391;47.212;7.542;2023-08-20T03:00:38;26.90;77.00
4755;DHT22;2391;47.212;7.542;2023-08-20T03:03:04;26.80;76.90
4755;DHT22;2391;47.212;7.542;2023-08-20T03:05:32;26.80;77.10
4755;DHT22;2391;47.212;7.542;2023-08-20T03:07:58;26.80;77.20
4755;DHT22;2391;47.212;7.542;2023-08-20T03:10:23;26.70;77.30
4755;DHT22;2391;47.212;7.542;2023-08-20T03:12:49;26.70;77.40
4755;DHT22;2391;47.212;7.542;2023-08-20T03:15:15;26.70;77.70
4755;DHT22;2391;47.212;7.542;2023-08-20T03:17:41;26.60;77.70
4755;DHT22;2391;47.212;7.542;2023-08-20T03:20:07;26.60;77.70
4755;DHT22;2391;47.212;7.542;2023-08-20T03:22:33;26.60;77.80
4755;DHT22;2391;47.212;7.542;2023-08-20T03:24:59;26.50;77.70
4755;DHT22;2391;47.212;7.542;2023-08-20T03:27:26;26.50;78.00
4755;DHT22;2391;47.212;7.542;2023-08-20T03:29:52;26.50;78.00
4755;DHT22;2391;47.212;7.542;2023-08-20T03:32:18;26.50;78.00
4755;DHT22;2391;47.212;7.542;2023-08-20T03:34:44;26.40;78.00
4755;DHT22;2391;47.212;7.542;2023-08-20T03:37:10;26.40;77.90
4755;DHT22;2391;47.212;7.542;2023-08-20T03:39:35;26.40;78.00
4755;DHT22;2391;47.212;7.542;2023-08-20T03:42:01;26.40;78.00
4755;DHT22;2391;47.212;7.542;2023-08-20T03:44:27;26.40;78.10
4755;DHT22;2391;47.212;7.542;2023-08-20T03:46:54;26.30;78.10
4755;DHT22;2391;47.212;7.542;2023-08-20T03:49:20;26.30;78.30
4755;DHT22;2391;47.212;7.542;2023-08-20T03:51:46;26.30;78.30
4755;DHT22;2391;47.212;7.542;2023-08-20T03:54:11;26.30;78.60
4755;DHT22;2391;47.212;7.542;2023-08-20T03:56:37;26.20;78.40
4755;DHT22;2391;47.212;7.542;2023-08-20T03:59:03;26.20;78.80
4755;DHT22;2391;47.212;7.542;2023-08-20T04:01:28;26.20;78.90
4755;DHT22;2391;47.212;7.542;2023-08-20T04:03:54;26.20;79.00
4755;DHT22;2391;47.212;7.542;2023-08-20T04:06:20;26.10;79.00
4755;DHT22;2391;47.212;7.542;2023-08-20T04:08:46;26.10;79.20
4755;DHT22;2391;47.212;7.542;2023-08-20T04:11:11;26.10;79.00
4755;DHT22;2391;47.212;7.542;2023-08-20T04:13:37;26.10;79.20
4755;DHT22;2391;47.212;7.542;2023-08-20T04:16:03;26.10;79.60
4755;DHT22;2391;47.212;7.542;2023-08-20T04:18:29;26.00;79.50
4755;DHT22;2391;47.212;7.542;2023-08-20T04:20:55;26.00;80.00
4755;DHT22;2391;47.212;7.542;2023-08-20T04:23:23;26.00;79.40
4755;DHT22;2391;47.212;7.542;2023-08-20T04:25:48;26.00;79.70
4755;DHT22;2391;47.212;7.542;2023-08-20T04:28:14;25.90;79.50
4755;DHT22;2391;47.212;7.542;2023-08-20T04:30:40;26.00;79.70
4755;DHT22;2391;47.212;7.542;2023-08-20T04:33:06;26.00;79.80
4755;DHT22;2391;47.212;7.542;2023-08-20T04:35:31;26.00;79.80
4755;DHT22;2391;47.212;7.542;2023-08-20T04:37:58;26.00;80.00
4755;DHT22;2391;47.212;7.542;2023-08-20T04:42:46;25.90;80.00
4755;DHT22;2391;47.212;7.542;2023-08-20T04:45:12;25.90;79.80
4755;DHT22;2391;47.212;7.542;2023-08-20T04:47:38;25.90;80.10
4755;DHT22;2391;47.212;7.542;2023-08-20T04:50:04;25.90;80.30
4755;DHT22;2391;47.212;7.542;2023-08-20T04:52:34;25.90;80.30
4755;DHT22;2391;47.212;7.542;2023-08-20T04:55:01;25.90;80.10
4755;DHT22;2391;47.212;7.542;2023-08-20T04:57:26;25.90;80.10
4755;DHT22;2391;47.212;7.542;2023-08-20T04:59:52;25.90;80.10
4755;DHT22;2391;47.212;7.542;2023-08-20T05:02:18;25.90;80.20
4755;DHT22;2391;47.212;7.542;2023-08-20T05:04:44;25.90;80.30
4755;DHT22;2391;47.212;7.542;2023-08-20T05:07:09;25.80;80.30
4755;DHT22;2391;47.212;7.542;2023-08-20T05:09:35;25.80;80.60
4755;DHT22;2391;47.212;7.542;2023-08-20T05:12:01;25.80;80.80
4755;DHT22;2391;47.212;7.542;2023-08-20T05:14:28;25.80;80.60
4755;DHT22;2391;47.212;7.542;2023-08-20T05:16:55;25.80;80.40
4755;DHT22;2391;47.212;7.542;2023-08-20T05:19:20;25.80;80.40
4755;DHT22;2391;47.212;7.542;2023-08-20T05:21:47;25.80;80.40
4755;DHT22;2391;47.212;7.542;2023-08-20T05:24:13;25.80;80.30
4755;DHT22;2391;47.212;7.542;2023-08-20T05:26:38;25.80;80.50
4755;DHT22;2391;47.212;7.542;2023-08-20T05:29:04;25.70;80.50
4755;DHT22;2391;47.212;7.542;2023-08-20T05:31:30;25.70;80.70
4755;DHT22;2391;47.212;7.542;2023-08-20T05:33:56;25.60;80.80
4755;DHT22;2391;47.212;7.542;2023-08-20T05:36:23;25.60;81.00
4755;DHT22;2391;47.212;7.542;2023-08-20T05:38:49;25.50;81.60
4755;DHT22;2391;47.212;7.542;2023-08-20T05:41:15;25.50;81.90
4755;DHT22;2391;47.212;7.542;2023-08-20T05:43:40;25.50;82.40
4755;DHT22;2391;47.212;7.542;2023-08-20T05:46:06;25.50;82.60
4755;DHT22;2391;47.212;7.542;2023-08-20T05:48:32;25.50;82.80
4755;DHT22;2391;47.212;7.542;2023-08-20T05:50:57;25.50;82.90
4755;DHT22;2391;47.212;7.542;2023-08-20T05:53:23;25.60;83.10
4755;DHT22;2391;47.212;7.542;2023-08-20T05:55:49;25.70;83.20
4755;DHT22;2391;47.212;7.542;2023-08-20T05:58:15;25.80;83.00
4755;DHT22;2391;47.212;7.542;2023-08-20T06:00:41;25.90;83.10
4755;DHT22;2391;47.212;7.542;2023-08-20T06:03:07;26.00;82.90
4755;DHT22;2391;47.212;7.542;2023-08-20T06:05:34;26.00;82.80
4755;DHT22;2391;47.212;7.542;2023-08-20T06:08:00;26.10;82.20
4755;DHT22;2391;47.212;7.542;2023-08-20T06:10:25;26.30;82.00
4755;DHT22;2391;47.212;7.542;2023-08-20T06:12:52;26.30;81.60
4755;DHT22;2391;47.212;7.542;2023-08-20T06:15:18;26.40;81.50
4755;DHT22;2391;47.212;7.542;2023-08-20T06:17:44;26.50;81.60
4755;DHT22;2391;47.212;7.542;2023-08-20T06:20:10;26.60;80.20
4755;DHT22;2391;47.212;7.542;2023-08-20T06:22:38;26.70;80.10
4755;DHT22;2391;47.212;7.542;2023-08-20T06:25:04;26.90;80.20
4755;DHT22;2391;47.212;7.542;2023-08-20T06:27:30;27.00;80.00
4755;DHT22;2391;47.212;7.542;2023-08-20T06:29:56;27.20;79.40
4755;DHT22;2391;47.212;7.542;2023-08-20T06:32:23;27.30;78.50
4755;DHT22;2391;47.212;7.542;2023-08-20T06:34:49;27.50;78.50
4755;DHT22;2391;47.212;7.542;2023-08-20T06:37:15;27.60;78.80
4755;DHT22;2391;47.212;7.542;2023-08-20T06:39:41;27.70;78.40
4755;DHT22;2391;47.212;7.542;2023-08-20T06:42:06;27.90;78.00
4755;DHT22;2391;47.212;7.542;2023-08-20T06:44:33;28.00;77.70
4755;DHT22;2391;47.212;7.542;2023-08-20T06:47:00;28.10;77.50
4755;DHT22;2391;47.212;7.542;2023-08-20T06:49:26;28.20;76.90
4755;DHT22;2391;47.212;7.542;2023-08-20T06:51:52;28.30;77.00
4755;DHT22;2391;47.212;7.542;2023-08-20T06:54:17;28.40;75.90
4755;DHT22;2391;47.212;7.542;2023-08-20T06:56:43;28.50;75.80
4755;DHT22;2391;47.212;7.542;2023-08-20T06:59:09;28.60;75.60
4755;DHT22;2391;47.212;7.542;2023-08-20T07:01:36;28.80;74.30
4755;DHT22;2391;47.212;7.542;2023-08-20T07:04:02;28.90;73.90
4755;DHT22;2391;47.212;7.542;2023-08-20T07:06:28;29.00;74.50
4755;DHT22;2391;47.212;7.542;2023-08-20T07:08:54;29.10;74.50
4755;DHT22;2391;47.212;7.542;2023-08-20T07:11:20;29.30;73.90
4755;DHT22;2391;47.212;7.542;2023-08-20T07:13:45;29.40;73.00
4755;DHT22;2391;47.212;7.542;2023-08-20T07:16:11;29.60;72.70
4755;DHT22;2391;47.212;7.542;2023-08-20T07:18:37;29.70;72.90
4755;DHT22;2391;47.212;7.542;2023-08-20T07:21:02;29.80;73.10
4755;DHT22;2391;47.212;7.542;2023-08-20T07:23:28;29.90;71.80
4755;DHT22;2391;47.212;7.542;2023-08-20T07:26:05;29.90;71.10
4755;DHT22;2391;47.212;7.542;2023-08-20T07:28:32;30.10;71.30
4755;DHT22;2391;47.212;7.542;2023-08-20T07:31:16;30.20;71.50
4755;DHT22;2391;47.212;7.542;2023-08-20T07:33:50;30.30;71.40
4755;DHT22;2391;47.212;7.542;2023-08-20T07:36:17;30.40;69.90
4755;DHT22;2391;47.212;7.542;2023-08-20T07:38:43;30.50;70.30
4755;DHT22;2391;47.212;7.542;2023-08-20T07:41:10;30.50;70.20
4755;DHT22;2391;47.212;7.542;2023-08-20T07:43:39;30.50;69.90
4755;DHT22;2391;47.212;7.542;2023-08-20T07:46:05;30.50;70.40
4755;DHT22;2391;47.212;7.542;2023-08-20T07:48:32;30.50;70.30
4755;DHT22;2391;47.212;7.542;2023-08-20T07:50:59;30.70;70.20
4755;DHT22;2391;47.212;7.542;2023-08-20T07:53:25;30.70;69.70
4755;DHT22;2391;47.212;7.542;2023-08-20T07:55:51;30.80;68.80
4755;DHT22;2391;47.212;7.542;2023-08-20T07:58:17;30.80;69.10
4755;DHT22;2391;47.212;7.542;2023-08-20T08:00:43;30.90;68.60
4755;DHT22;2391;47.212;7.542;2023-08-20T08:03:09;30.80;68.30
4755;DHT22;2391;47.212;7.542;2023-08-20T08:05:36;30.80;69.30
4755;DHT22;2391;47.212;7.542;2023-08-20T08:08:02;30.90;69.10
4755;DHT22;2391;47.212;7.542;2023-08-20T08:10:29;30.90;68.90
4755;DHT22;2391;47.212;7.542;2023-08-20T08:12:55;30.90;69.40
4755;DHT22;2391;47.212;7.542;2023-08-20T08:15:20;30.90;69.80
4755;DHT22;2391;47.212;7.542;2023-08-20T08:17:46;30.90;69.20
4755;DHT22;2391;47.212;7.542;2023-08-20T08:20:12;30.90;69.20
4755;DHT22;2391;47.212;7.542;2023-08-20T08:22:39;30.80;70.00
4755;DHT22;2391;47.212;7.542;2023-08-20T08:25:05;30.80;69.60
4755;DHT22;2391;47.212;7.542;2023-08-20T08:27:31;30.80;69.80
4755;DHT22;2391;47.212;7.542;2023-08-20T08:29:57;30.90;70.00
4755;DHT22;2391;47.212;7.542;2023-08-20T08:32:23;31.00;70.20
4755;DHT22;2391;47.212;7.542;2023-08-20T08:34:50;31.00;69.90
4755;DHT22;2391;47.212;7.542;2023-08-20T08:37:16;31.10;68.10
4755;DHT22;2391;47.212;7.542;2023-08-20T08:39:42;30.90;68.40
4755;DHT22;2391;47.212;7.542;2023-08-20T08:42:10;30.80;69.30
4755;DHT22;2391;47.212;7.542;2023-08-20T08:44:37;30.70;69.40
4755;DHT22;2391;47.212;7.542;2023-08-20T08:47:04;30.70;69.50
4755;DHT22;2391;47.212;7.542;2023-08-20T08:49:33;30.70;69.30
4755;DHT22;2391;47.212;7.542;2023-08-20T08:51:58;30.80;69.30
4755;DHT22;2391;47.212;7.542;2023-08-20T08:54:25;31.00;68.80
4755;DHT22;2391;47.212;7.542;2023-08-20T08:56:51;30.90;69.20
4755;DHT22;2391;47.212;7.542;2023-08-20T08:59:18;30.90;70.10
4755;DHT22;2391;47.212;7.542;2023-08-20T09:01:44;30.90;69.20
4755;DHT22;2391;47.212;7.542;2023-08-20T09:04:10;31.00;70.20
4755;DHT22;2391;47.212;7.542;2023-08-20T09:06:49;31.10;69.80
4755;DHT22;2391;47.212;7.542;2023-08-20T09:09:16;31.20;69.90
4755;DHT22;2391;47.212;7.542;2023-08-20T09:11:43;31.30;70.00
4755;DHT22;2391;47.212;7.542;2023-08-20T09:14:20;31.30;69.60
4755;DHT22;2391;47.212;7.542;2023-08-20T09:16:41;31.40;69.80
4755;DHT22;2391;47.212;7.542;2023-08-20T09:19:06;31.50;69.40
4755;DHT22;2391;47.212;7.542;2023-08-20T09:21:33;31.60;69.20
4755;DHT22;2391;47.212;7.542;2023-08-20T09:24:01;31.60;68.50
4755;DHT22;2391;47.212;7.542;2023-08-20T09:26:27;31.50;68.80
4755;DHT22;2391;47.212;7.542;2023-08-20T09:28:55;31.60;68.70
4755;DHT22;2391;47.212;7.542;2023-08-20T09:31:38;31.60;69.40
4755;DHT22;2391;47.212;7.542;2023-08-20T09:34:04;31.70;69.40
4755;DHT22;2391;47.212;7.542;2023-08-20T09:36:35;31.70;68.60
4755;DHT22;2391;47.212;7.542;2023-08-20T09:38:58;31.80;67.90
4755;DHT22;2391;47.212;7.542;2023-08-20T09:41:25;31.80;68.70
4755;DHT22;2391;47.212;7.542;2023-08-20T09:43:55;31.90;67.80
4755;DHT22;2391;47.212;7.542;2023-08-20T09:46:23;32.00;67.90
4755;DHT22;2391;47.212;7.542;2023-08-20T09:48:51;32.00;68.30
4755;DHT22;2391;47.212;7.542;2023-08-20T09:51:24;32.00;67.90
4755;DHT22;2391;47.212;7.542;2023-08-20T09:56:28;32.10;67.20
4755;DHT22;2391;47.212;7.542;2023-08-20T09:58:57;32.20;67.20
4755;DHT22;2391;47.212;7.542;2023-08-20T10:01:25;32.30;67.90
4755;DHT22;2391;47.212;7.542;2023-08-20T10:03:51;32.30;67.40
4755;DHT22;2391;47.212;7.542;2023-08-20T10:06:18;32.40;67.20
4755;DHT22;2391;47.212;7.542;2023-08-20T10:08:45;32.60;67.00
4755;DHT22;2391;47.212;7.542;2023-08-20T10:11:13;32.60;67.30
4755;DHT22;2391;47.212;7.542;2023-08-20T10:13:39;32.60;65.80
4755;DHT22;2391;47.212;7.542;2023-08-20T10:16:05;32.60;65.70
4755;DHT22;2391;47.212;7.542;2023-08-20T10:18:34;32.60;65.70
4755;DHT22;2391;47.212;7.542;2023-08-20T10:21:01;32.60;65.60
4755;DHT22;2391;47.212;7.542;2023-08-20T10:23:27;32.50;65.60
4755;DHT22;2391;47.212;7.542;2023-08-20T10:25:53;32.50;66.10
4755;DHT22;2391;47.212;7.542;2023-08-20T10:28:28;32.50;65.20
4755;DHT22;2391;47.212;7.542;2023-08-20T10:33:48;32.60;65.90
4755;DHT22;2391;47.212;7.542;2023-08-20T10:36:13;32.60;66.00
4755;DHT22;2391;47.212;7.542;2023-08-20T10:38:37;32.60;66.30
4755;DHT22;2391;47.212;7.542;2023-08-20T10:41:06;32.50;66.50
4755;DHT22;2391;47.212;7.542;2023-08-20T10:43:42;32.40;66.90
4755;DHT22;2391;47.212;7.542;2023-08-20T10:48:39;32.40;66.60
4755;DHT22;2391;47.212;7.542;2023-08-20T10:51:10;32.40;67.10
4755;DHT22;2391;47.212;7.542;2023-08-20T10:53:37;32.40;66.10
4755;DHT22;2391;47.212;7.542;2023-08-20T10:56:14;32.40;66.70
4755;DHT22;2391;47.212;7.542;2023-08-20T10:58:43;32.40;66.70
4755;DHT22;2391;47.212;7.542;2023-08-20T11:01:22;32.40;66.80
4755;DHT22;2391;47.212;7.542;2023-08-20T11:03:45;32.50;67.00
4755;DHT22;2391;47.212;7.542;2023-08-20T11:06:11;32.50;66.60
4755;DHT22;2391;47.212;7.542;2023-08-20T11:08:38;32.60;66.80
4755;DHT22;2391;47.212;7.542;2023-08-20T11:11:07;32.60;67.00
4755;DHT22;2391;47.212;7.542;2023-08-20T11:13:34;32.60;66.60
4755;DHT22;2391;47.212;7.542;2023-08-20T11:16:02;32.60;66.80
4755;DHT22;2391;47.212;7.542;2023-08-20T11:18:30;32.60;67.00
4755;DHT22;2391;47.212;7.542;2023-08-20T11:20:57;32.60;66.90
4755;DHT22;2391;47.212;7.542;2023-08-20T11:23:22;32.60;66.80
4755;DHT22;2391;47.212;7.542;2023-08-20T11:25:48;32.60;66.60
4755;DHT22;2391;47.212;7.542;2023-08-20T11:28:14;32.60;66.30
4755;DHT22;2391;47.212;7.542;2023-08-20T11:30:39;32.50;66.50
4755;DHT22;2391;47.212;7.542;2023-08-20T11:33:05;32.60;66.90
4755;DHT22;2391;47.212;7.542;2023-08-20T11:35:32;32.60;66.60
4755;DHT22;2391;47.212;7.542;2023-08-20T11:37:58;32.50;67.00
4755;DHT22;2391;47.212;7.542;2023-08-20T11:40:25;32.60;67.30
4755;DHT22;2391;47.212;7.542;2023-08-20T11:42:50;32.60;67.40
4755;DHT22;2391;47.212;7.542;2023-08-20T11:45:16;32.60;67.40
4755;DHT22;2391;47.212;7.542;2023-08-20T11:47:42;32.60;67.10
4755;DHT22;2391;47.212;7.542;2023-08-20T11:50:09;32.70;67.30
4755;DHT22;2391;47.212;7.542;2023-08-20T11:52:36;32.80;67.10
4755;DHT22;2391;47.212;7.542;2023-08-20T11:55:03;32.90;67.20
4755;DHT22;2391;47.212;7.542;2023-08-20T11:57:31;33.00;67.40
4755;DHT22;2391;47.212;7.542;2023-08-20T12:00:02;33.00;66.70
4755;DHT22;2391;47.212;7.542;2023-08-20T12:02:29;33.10;66.60
4755;DHT22;2391;47.212;7.542;2023-08-20T12:04:56;33.10;66.30
4755;DHT22;2391;47.212;7.542;2023-08-20T12:07:25;33.10;66.60
4755;DHT22;2391;47.212;7.542;2023-08-20T12:09:51;33.10;66.70
4755;DHT22;2391;47.212;7.542;2023-08-20T12:12:19;33.20;66.20
4755;DHT22;2391;47.212;7.542;2023-08-20T12:14:45;33.30;66.00
4755;DHT22;2391;47.212;7.542;2023-08-20T12:17:11;33.30;65.40
4755;DHT22;2391;47.212;7.542;2023-08-20T12:19:37;33.30;65.60
4755;DHT22;2391;47.212;7.542;2023-08-20T12:22:03;33.30;65.60
4755;DHT22;2391;47.212;7.542;2023-08-20T12:24:29;33.30;65.40
4755;DHT22;2391;47.212;7.542;2023-08-20T12:26:55;33.30;65.40
4755;DHT22;2391;47.212;7.542;2023-08-20T12:29:20;33.30;65.40
4755;DHT22;2391;47.212;7.542;2023-08-20T12:31:46;33.30;65.90
4755;DHT22;2391;47.212;7.542;2023-08-20T12:34:12;33.40;66.00
4755;DHT22;2391;47.212;7.542;2023-08-20T12:36:38;33.50;65.80
4755;DHT22;2391;47.212;7.542;2023-08-20T12:39:04;33.60;65.40
4755;DHT22;2391;47.212;7.542;2023-08-20T12:41:30;33.60;65.20
4755;DHT22;2391;47.212;7.542;2023-08-20T12:43:57;33.70;65.80
4755;DHT22;2391;47.212;7.542;2023-08-20T12:46:23;33.70;64.80
4755;DHT22;2391;47.212;7.542;2023-08-20T12:48:49;33.80;65.20
4755;DHT22;2391;47.212;7.542;2023-08-20T12:51:16;33.90;64.90
4755;DHT22;2391;47.212;7.542;2023-08-20T12:53:43;33.90;64.30
4755;DHT22;2391;47.212;7.542;2023-08-20T12:56:09;33.90;64.60
4755;DHT22;2391;47.212;7.542;2023-08-20T12:58:36;33.90;64.30
4755;DHT22;2391;47.212;7.542;2023-08-20T13:01:01;33.90;64.10
4755;DHT22;2391;47.212;7.542;2023-08-20T13:03:28;34.00;63.40
4755;DHT22;2391;47.212;7.542;2023-08-20T13:05:54;34.00;63.20
4755;DHT22;2391;47.212;7.542;2023-08-20T13:08:23;34.00;62.90
4755;DHT22;2391;47.212;7.542;2023-08-20T13:10:52;34.00;62.40
4755;DHT22;2391;47.212;7.542;2023-08-20T13:13:20;34.00;62.90
4755;DHT22;2391;47.212;7.542;2023-08-20T13:15:46;34.10;62.60
4755;DHT22;2391;47.212;7.542;2023-08-20T13:18:12;34.20;62.40
4755;DHT22;2391;47.212;7.542;2023-08-20T13:20:40;34.20;61.10
4755;DHT22;2391;47.212;7.542;2023-08-20T13:23:05;34.30;61.10
4755;DHT22;2391;47.212;7.542;2023-08-20T13:25:31;34.30;60.30
4755;DHT22;2391;47.212;7.542;2023-08-20T13:27:57;34.30;59.80
4755;DHT22;2391;47.212;7.542;2023-08-20T13:30:23;34.40;59.80
4755;DHT22;2391;47.212;7.542;2023-08-20T13:32:49;34.40;59.70
4755;DHT22;2391;47.212;7.542;2023-08-20T13:35:15;34.50;59.70
4755;DHT22;2391;47.212;7.542;2023-08-20T13:37:40;34.50;60.00
4755;DHT22;2391;47.212;7.542;2023-08-20T13:40:07;34.50;60.60
4755;DHT22;2391;47.212;7.542;2023-08-20T13:42:35;34.50;60.50
4755;DHT22;2391;47.212;7.542;2023-08-20T13:45:01;34.50;60.70
4755;DHT22;2391;47.212;7.542;2023-08-20T13:47:26;34.50;60.20
4755;DHT22;2391;47.212;7.542;2023-08-20T13:49:52;34.50;60.40
4755;DHT22;2391;47.212;7.542;2023-08-20T13:52:18;34.50;60.00
4755;DHT22;2391;47.212;7.542;2023-08-20T13:54:43;34.50;60.00
4755;DHT22;2391;47.212;7.542;2023-08-20T13:57:09;34.60;59.50
4755;DHT22;2391;47.212;7.542;2023-08-20T13:59:35;34.70;59.50
4755;DHT22;2391;47.212;7.542;2023-08-20T14:02:01;34.80;59.00
4755;DHT22;2391;47.212;7.542;2023-08-20T14:04:27;34.80;59.00
4755;DHT22;2391;47.212;7.542;2023-08-20T14:06:53;34.80;58.20
4755;DHT22;2391;47.212;7.542;2023-08-20T14:09:19;34.80;57.90
4755;DHT22;2391;47.212;7.542;2023-08-20T14:11:46;34.80;58.20
4755;DHT22;2391;47.212;7.542;2023-08-20T14:14:12;34.80;58.70
4755;DHT22;2391;47.212;7.542;2023-08-20T14:16:38;34.90;58.10
4755;DHT22;2391;47.212;7.542;2023-08-20T14:19:03;34.90;57.90
4755;DHT22;2391;47.212;7.542;2023-08-20T14:21:30;35.00;57.70
4755;DHT22;2391;47.212;7.542;2023-08-20T14:23:56;35.00;57.50
4755;DHT22;2391;47.212;7.542;2023-08-20T14:26:21;35.00;57.70
4755;DHT22;2391;47.212;7.542;2023-08-20T14:28:47;35.10;58.20
4755;DHT22;2391;47.212;7.542;2023-08-20T14:31:14;35.00;57.20
4755;DHT22;2391;47.212;7.542;2023-08-20T14:33:40;35.00;57.30
4755;DHT22;2391;47.212;7.542;2023-08-20T14:36:06;35.10;57.60
4755;DHT22;2391;47.212;7.542;2023-08-20T14:38:32;35.00;56.50
4755;DHT22;2391;47.212;7.542;2023-08-20T14:41:01;35.00;56.40
4755;DHT22;2391;47.212;7.542;2023-08-20T14:43:28;35.00;56.90
4755;DHT22;2391;47.212;7.542;2023-08-20T14:45:54;35.00;57.30
4755;DHT22;2391;47.212;7.542;2023-08-20T14:48:21;34.90;57.30
4755;DHT22;2391;47.212;7.542;2023-08-20T14:50:48;34.90;57.40
4755;DHT22;2391;47.212;7.542;2023-08-20T14:53:14;35.00;57.10
4755;DHT22;2391;47.212;7.542;2023-08-20T14:55:39;35.00;56.50
4755;DHT22;2391;47.212;7.542;2023-08-20T14:58:05;35.10;56.80
4755;DHT22;2391;47.212;7.542;2023-08-20T15:00:32;35.10;55.60
4755;DHT22;2391;47.212;7.542;2023-08-20T15:02:58;35.00;56.00
4755;DHT22;2391;47.212;7.542;2023-08-20T15:05:23;35.10;56.70
4755;DHT22;2391;47.212;7.542;2023-08-20T15:07:49;35.10;56.70
4755;DHT22;2391;47.212;7.542;2023-08-20T15:10:15;35.10;57.10
4755;DHT22;2391;47.212;7.542;2023-08-20T15:12:41;35.10;56.70
4755;DHT22;2391;47.212;7.542;2023-08-20T15:15:10;35.10;57.00
4755;DHT22;2391;47.212;7.542;2023-08-20T15:17:37;35.20;56.60
4755;DHT22;2391;47.212;7.542;2023-08-20T15:20:04;35.10;56.50
4755;DHT22;2391;47.212;7.542;2023-08-20T15:22:31;35.20;57.30
4755;DHT22;2391;47.212;7.542;2023-08-20T15:24:57;35.20;57.80
4755;DHT22;2391;47.212;7.542;2023-08-20T15:27:24;35.20;58.40
4755;DHT22;2391;47.212;7.542;2023-08-20T15:29:51;35.20;59.20
4755;DHT22;2391;47.212;7.542;2023-08-20T15:32:17;35.20;59.30
4755;DHT22;2391;47.212;7.542;2023-08-20T15:34:43;35.20;59.70
4755;DHT22;2391;47.212;7.542;2023-08-20T15:37:09;35.20;59.70
4755;DHT22;2391;47.212;7.542;2023-08-20T15:39:35;35.20;60.50
4755;DHT22;2391;47.212;7.542;2023-08-20T15:42:01;35.20;60.50
4755;DHT22;2391;47.212;7.542;2023-08-20T15:44:28;35.30;60.80
4755;DHT22;2391;47.212;7.542;2023-08-20T15:46:53;35.30;60.70
4755;DHT22;2391;47.212;7.542;2023-08-20T15:49:19;35.30;60.60
4755;DHT22;2391;47.212;7.542;2023-08-20T15:51:45;35.30;61.10
4755;DHT22;2391;47.212;7.542;2023-08-20T15:54:12;35.30;62.70
4755;DHT22;2391;47.212;7.542;2023-08-20T15:56:38;35.40;63.10
4755;DHT22;2391;47.212;7.542;2023-08-20T15:59:05;35.30;61.80
4755;DHT22;2391;47.212;7.542;2023-08-20T16:01:31;35.20;62.00
4755;DHT22;2391;47.212;7.542;2023-08-20T16:03:57;35.10;62.10
4755;DHT22;2391;47.212;7.542;2023-08-20T16:06:23;35.10;61.80
4755;DHT22;2391;47.212;7.542;2023-08-20T16:08:49;35.10;61.70
4755;DHT22;2391;47.212;7.542;2023-08-20T16:11:15;35.00;61.80
4755;DHT22;2391;47.212;7.542;2023-08-20T16:13:42;35.00;62.10
4755;DHT22;2391;47.212;7.542;2023-08-20T16:16:10;34.90;62.00